Date,TemperatureHighF,TemperatureAvgF,TemperatureLowF,DewpointHighF,DewpointAvgF,DewpointLowF,HumidityHigh,HumidityAvg,HumidityLow,PressureMaxIn,PressureMinIn,WindSpeedMaxMPH,WindSpeedAvgMPH,GustSpeedMaxMPH,PrecipitationSumIn
2013-1-1,38,33,28,34,29,24,89,87,83,30.47,30.33,11,1,11,0.02
2013-1-2,43,34,31,36,30,27,88,85,76,30.33,30.15,8,1,8,0.00
2013-1-3,38,32,26,33,28,22,88,86,82,30.18,30.06,7,0,7,0.04
2013-1-4,44,39,36,40,36,33,90,89,88,30.29,30.13,12,1,12,0.16
2013-1-5,41,40,38,39,37,35,90,89,88,30.19,30.08,11,1,11,0.37
2013-1-6,44,41,38,41,38,35,90,89,85,30.15,29.98,2,0,2,0.47
2013-1-7,46,41,37,44,38,34,92,90,88,30.12,29.82,13,2,13,1.06
2013-1-8,50,42,38,47,39,35,92,90,89,30.14,29.66,19,2,19,1.18
2013-1-9,50,40,34,46,36,31,90,88,86,29.91,29.63,21,1,21,2.02
2013-1-10,38,35,32,35,32,29,90,89,88,30.08,29.91,7,0,7,0.18
2013-1-11,35,29,25,29,26,21,89,86,77,30.31,30.08,2,0,2,0.00
2013-1-12,33,26,22,27,22,18,87,84,76,30.42,30.29,6,0,6,0.00
2013-1-13,34,26,21,27,22,17,87,84,75,30.46,30.40,2,0,2,0.00
2013-1-14,36,32,28,31,28,25,88,86,81,30.54,30.43,2,0,2,0.03
2013-1-15,41,34,28,34,30,25,88,86,78,30.67,30.53,2,0,2,0.00
2013-1-16,40,31,25,35,27,22,89,87,83,30.66,30.48,6,0,6,0.00
2013-1-17,44,34,30,40,31,27,90,88,81,30.49,30.26,6,1,6,0.02
2013-1-18,41,33,28,37,29,25,90,87,82,30.32,30.23,4,0,4,0.00
2013-1-19,42,32,28,37,29,25,89,87,80,30.35,30.28,8,1,8,0.02
2013-1-20,44,35,30,37,31,27,89,85,77,30.35,30.22,9,1,9,0.00
2013-1-21,40,31,25,34,27,22,88,85,78,30.23,30.10,8,0,8,0.00
2013-1-22,45,34,26,38,30,23,89,85,75,30.12,29.88,4,0,4,0.02
2013-1-23,42,39,37,38,35,32,89,86,81,30.10,29.81,8,1,8,0.32
2013-1-24,44,40,35,40,36,32,90,88,84,30.19,30.03,8,0,8,0.41
2013-1-25,47,39,32,44,36,30,90,89,86,30.04,29.91,4,0,4,0.16
2013-1-26,39,36,34,37,33,31,90,89,87,30.00,29.86,3,0,3,0.55
2013-1-27,42,37,34,38,34,31,90,89,87,30.01,29.95,7,0,7,0.51
2013-1-28,37,34,34,34,32,31,90,89,89,30.03,29.96,6,0,6,1.15
2013-1-29,39,37,35,37,35,32,90,90,90,30.32,30.03,2,0,2,1.22
2013-1-30,46,41,37,43,38,34,90,89,86,30.36,30.30,2,0,2,0.25
2013-1-31,45,42,40,42,40,37,90,90,88,30.36,30.27,2,0,2,0.34
2013-2-1,50,42,39,45,39,36,90,88,82,30.38,30.30,10,0,10,0.02
2013-2-2,53,42,35,46,38,31,89,84,75,30.37,30.19,11,1,11,0.00
2013-2-3,46,40,36,43,37,32,89,88,87,30.28,30.17,6,0,6,0.08
2013-2-4,48,43,41,44,40,38,90,89,82,30.18,30.00,7,0,7,0.03
2013-2-5,47,44,43,43,41,39,90,86,80,29.89,29.80,18,2,18,0.12
2013-2-6,47,43,41,43,40,38,90,87,79,30.02,29.79,18,1,18,0.18
2013-2-7,47,42,35,42,38,31,90,87,78,30.11,29.79,7,1,7,0.19
2013-2-8,45,40,0,39,36,-2,89,85,79,30.27,30.23,6,1,6,0.02
2013-2-9,45,40,36,40,36,33,89,86,81,30.32,30.23,4,0,4,0.00
2013-2-10,47,39,32,39,34,29,89,84,71,30.35,30.28,12,1,12,0.00
2013-2-11,46,41,35,40,37,31,89,86,81,30.33,30.29,8,0,8,0.06
2013-2-12,47,43,38,43,39,35,90,88,85,30.38,30.23,10,0,10,0.06
2013-2-13,47,44,41,43,41,38,89,87,84,30.47,30.25,12,1,12,0.16
2013-2-14,51,44,40,44,40,37,89,85,77,30.54,30.46,6,0,6,0.10
2013-2-15,58,44,37,47,39,34,89,82,67,30.53,30.15,12,1,12,0.00
2013-2-16,46,42,35,44,39,32,90,88,86,30.16,30.08,10,2,10,0.78
2013-2-17,47,41,33,41,37,30,89,86,79,30.21,30.10,12,1,12,0.37
2013-2-18,46,38,33,39,34,30,89,85,73,30.10,29.76,5,0,5,0.00
2013-2-19,53,40,31,38,32,26,88,76,54,29.98,29.74,12,2,12,0.00
2013-2-20,43,37,31,37,33,26,87,84,79,30.02,29.97,4,0,4,0.02
2013-2-21,40,38,35,36,34,31,89,88,87,30.04,29.99,3,0,3,0.55
2013-2-22,44,39,38,41,36,34,90,89,86,30.01,29.63,12,1,12,0.99
2013-2-23,43,38,34,39,34,31,89,88,87,30.34,29.85,11,1,11,0.72
2013-2-24,44,39,35,41,36,32,89,88,86,30.35,29.93,6,0,6,0.12
2013-2-25,43,40,38,39,37,35,90,88,83,30.25,29.86,10,2,10,0.59
2013-2-26,47,41,36,39,37,33,89,84,74,30.33,30.16,5,0,5,0.02
2013-2-27,51,43,38,41,38,34,89,83,65,30.28,30.16,5,0,5,0.29
2013-2-28,44,42,39,41,39,36,90,89,87,30.29,30.18,10,1,10,0.59
2013-3-1,53,49,44,49,46,41,92,88,84,30.31,30.23,13,2,13,0.26
2013-3-2,56,46,41,48,42,37,89,85,70,30.25,29.99,12,2,12,0.68
2013-3-3,48,40,31,40,35,28,89,82,65,30.30,30.14,10,1,10,0.06
2013-3-4,53,40,31,38,32,28,88,74,50,30.29,29.95,13,2,13,0.02
2013-3-5,56,45,38,39,34,30,80,65,46,29.95,29.71,58,2,58,0.00
2013-3-6,46,42,38,41,37,33,86,82,75,29.86,29.57,8,1,8,0.19
2013-3-7,52,42,33,44,37,29,88,84,73,30.09,29.86,9,0,9,0.09
2013-3-8,55,41,32,43,34,28,89,79,59,30.22,30.05,14,1,14,0.00
2013-3-9,56,40,29,42,33,25,88,76,55,30.48,30.22,12,1,12,0.03
2013-3-10,49,42,34,41,36,30,85,80,72,30.47,30.38,9,1,9,0.00
2013-3-11,57,46,36,41,38,33,88,76,53,30.42,30.15,11,1,11,0.02
2013-3-12,48,45,42,45,42,38,90,88,84,30.15,30.04,9,1,9,1.36
2013-3-13,53,49,46,50,46,43,90,89,88,30.17,30.08,4,0,4,0.68
2013-3-14,53,49,46,50,46,44,91,89,86,30.13,30.01,6,0,6,0.32
2013-3-15,60,51,46,52,46,43,90,85,70,30.19,30.09,8,0,8,0.18
2013-3-16,52,45,38,47,41,34,89,87,77,30.09,29.81,12,2,12,0.80
2013-3-17,45,39,35,40,36,32,89,87,81,30.16,29.90,9,2,9,1.17
2013-3-18,51,41,34,41,35,30,89,81,54,30.23,30.04,14,2,14,0.44
2013-3-19,53,42,34,40,34,30,87,75,53,30.23,29.61,17,4,17,0.08
2013-3-20,55,44,38,47,38,34,90,81,59,29.97,29.40,18,3,20,1.14
2013-3-21,46,39,35,39,34,31,86,84,75,30.16,29.96,9,2,9,0.60
2013-3-22,50,38,31,39,32,27,88,80,60,30.36,30.15,15,1,15,0.37
2013-3-23,53,38,30,34,30,26,87,73,44,30.38,30.27,10,1,10,0.00
2013-3-24,57,42,33,37,32,28,83,70,42,30.30,30.11,11,2,11,0.00
2013-3-25,63,46,35,38,33,29,80,65,38,30.14,29.90,12,2,12,0.00
2013-3-26,64,49,38,43,37,32,79,66,43,30.00,29.92,15,2,15,0.00
2013-3-27,60,50,40,46,40,35,83,71,56,29.98,29.91,58,1,58,0.00
2013-3-28,66,51,39,49,42,34,84,72,52,30.14,29.98,12,1,12,0.08
2013-3-29,67,52,39,49,43,35,87,73,51,30.24,30.14,14,1,14,0.00
2013-3-30,72,53,40,47,41,35,84,66,39,30.25,30.06,10,2,10,0.00
2013-3-31,75,56,42,49,41,35,76,60,37,30.07,29.87,12,2,12,0.00
2013-4-1,67,52,37,51,42,32,84,72,56,30.12,29.95,19,3,19,0.00
2013-4-2,60,52,45,48,44,40,85,76,64,30.17,30.11,14,2,14,0.00
2013-4-3,68,56,47,49,45,42,85,70,50,30.16,29.93,12,1,12,0.00
2013-4-4,56,53,50,50,46,41,87,77,67,29.93,29.63,16,2,16,0.49
2013-4-5,59,51,48,52,46,44,88,84,70,29.84,29.69,13,1,13,1.20
2013-4-6,54,48,44,46,43,40,89,82,66,29.89,29.68,9,1,9,0.30
2013-4-7,46,43,40,41,38,36,87,86,83,29.86,29.48,11,2,11,1.11
2013-4-8,56,47,42,47,42,39,88,81,67,30.25,29.86,11,1,11,0.28
2013-4-9,58,49,41,46,42,37,88,76,61,30.31,30.16,5,1,5,0.00
2013-4-10,51,48,46,47,44,42,89,85,80,30.22,29.85,14,2,14,1.02
2013-4-11,56,48,37,46,40,32,88,78,57,30.27,30.17,13,1,13,0.18
2013-4-12,50,42,35,41,36,30,87,82,69,30.17,29.64,17,1,17,0.49
2013-4-13,44,40,37,39,36,33,87,85,83,29.97,29.82,11,1,11,0.56
2013-4-14,57,46,38,42,38,35,87,75,56,29.99,29.88,13,1,13,0.00
2013-4-15,57,46,39,45,39,35,86,78,57,30.16,29.92,9,1,9,0.08
2013-4-16,59,46,37,43,37,32,86,73,48,30.38,30.16,58,1,58,0.00
2013-4-17,61,47,35,42,36,30,85,68,46,30.43,30.36,13,1,13,0.00
2013-4-18,54,48,44,45,42,39,86,78,65,30.42,30.20,10,1,10,0.29
2013-4-19,56,49,45,51,45,42,88,86,83,30.20,30.04,9,2,9,0.69
2013-4-20,54,49,46,49,45,43,89,86,81,30.25,30.15,10,2,10,0.63
2013-4-21,56,46,39,47,42,35,88,85,70,30.36,30.19,13,1,13,0.59
2013-4-22,65,48,38,42,36,33,88,67,33,30.49,30.35,18,3,18,0.02
2013-4-23,68,50,36,41,37,31,84,65,37,30.42,30.20,12,1,12,0.00
2013-4-24,72,54,38,44,38,32,81,59,32,30.32,30.05,12,2,12,0.00
2013-4-25,74,55,38,47,41,33,83,62,38,30.13,30.03,13,2,13,0.00
2013-4-26,72,57,41,53,45,35,83,66,47,30.21,30.12,14,2,14,0.00
2013-4-27,58,51,48,47,45,41,86,78,55,30.18,30.12,12,0,12,0.45
2013-4-28,56,50,47,48,45,42,87,82,69,30.19,29.90,12,2,12,0.32
2013-4-29,54,47,42,43,38,31,87,71,45,30.13,29.87,21,4,21,0.29
2013-4-30,56,45,36,42,36,31,85,73,49,30.43,30.12,10,1,10,0.51
2013-5-1,68,49,32,44,36,28,86,66,37,30.56,30.43,11,1,11,0.00
2013-5-2,72,56,42,46,40,35,78,58,36,30.54,30.32,13,3,14,0.00
2013-5-3,76,57,39,52,44,34,85,66,43,30.38,30.19,15,2,15,0.00
2013-5-4,83,63,48,52,46,40,80,57,28,30.24,29.98,10,2,10,0.02
2013-5-5,88,66,49,55,47,40,72,54,25,30.01,29.75,58,2,58,0.00
2013-5-6,88,69,54,53,47,40,75,48,25,29.86,29.72,18,3,18,0.00
2013-5-7,75,61,46,56,50,41,83,68,48,29.98,29.81,16,3,16,0.00
2013-5-8,68,57,48,55,49,42,86,75,63,30.13,29.98,16,2,16,0.00
2013-5-9,77,59,44,60,50,40,86,73,55,30.20,30.07,15,2,15,0.00
2013-5-10,81,64,46,61,52,42,87,69,50,30.20,30.07,14,1,14,0.00
2013-5-11,85,67,53,61,54,48,85,67,44,30.16,29.94,13,1,13,0.00
2013-5-12,66,62,58,61,56,50,87,83,71,30.08,29.97,6,0,6,0.21
2013-5-13,61,56,48,56,51,44,88,85,70,30.18,29.91,17,1,17,0.90
2013-5-14,67,54,44,48,44,41,88,72,44,30.22,30.09,9,1,9,0.00
2013-5-15,69,55,45,49,44,40,84,69,46,30.12,29.97,12,2,12,0.07
2013-5-16,73,60,51,55,51,46,87,73,50,30.01,29.83,58,1,58,0.07
2013-5-17,59,56,53,53,51,49,86,83,75,30.03,29.92,8,1,8,0.10
2013-5-18,63,56,51,51,49,47,88,77,60,30.25,30.03,12,1,12,0.02
2013-5-19,63,58,52,53,50,47,84,76,69,30.36,30.32,3,0,3,0.00
2013-5-20,71,58,48,54,49,45,87,73,55,30.33,29.87,17,2,17,0.00
2013-5-21,54,51,48,48,46,44,86,83,74,29.88,29.76,7,1,7,0.67
2013-5-22,52,49,46,47,45,43,88,85,81,29.92,29.81,9,1,9,0.23
2013-5-23,60,50,44,52,45,40,88,82,67,29.99,29.91,12,1,12,0.20
2013-5-24,62,53,42,50,45,38,88,76,60,30.02,29.95,17,1,17,0.04
2013-5-25,67,56,48,51,48,42,87,76,52,30.02,29.96,10,1,10,0.17
2013-5-26,62,54,47,55,49,42,86,82,74,29.98,29.92,12,0,12,0.04
2013-5-27,61,56,52,55,51,49,88,84,76,29.95,29.71,8,0,8,0.16
2013-5-28,62,56,52,54,51,48,88,84,72,29.87,29.75,4,0,4,0.08
2013-5-29,57,53,50,52,49,46,88,86,83,29.95,29.66,10,1,10,0.37
2013-5-30,61,54,49,52,49,46,89,83,66,30.21,29.95,6,0,6,0.18
2013-5-31,68,57,48,52,49,43,88,76,52,30.31,30.22,12,1,12,0.02
2013-6-1,72,58,46,56,50,42,86,74,53,30.24,30.03,10,1,10,0.00
2013-6-2,72,61,52,54,51,46,86,71,48,30.07,30.00,17,2,17,0.00
2013-6-3,75,61,46,57,50,41,86,70,52,30.09,30.02,16,2,16,0.00
2013-6-4,83,65,49,59,52,44,85,66,41,30.12,29.99,19,2,19,0.00
2013-6-5,82,65,50,60,53,44,86,68,45,30.07,30.00,18,2,18,0.00
2013-6-6,83,66,52,62,53,47,86,66,43,30.03,29.96,13,2,13,0.00
2013-6-7,71,60,50,53,49,44,83,68,48,30.15,30.01,10,1,10,0.00
2013-6-8,71,60,50,54,49,44,83,69,53,30.17,30.08,18,2,18,0.04
2013-6-9,70,59,49,50,47,42,80,65,46,30.09,30.01,14,3,14,0.00
2013-6-10,72,58,42,52,46,37,85,66,46,30.03,29.84,14,2,14,0.00
2013-6-11,66,57,52,50,47,45,83,70,51,30.08,29.90,8,1,8,0.08
2013-6-12,69,58,50,52,49,46,86,71,49,30.13,30.07,12,1,12,0.02
2013-6-13,66,57,51,56,51,46,86,82,68,30.20,30.12,8,1,8,0.00
2013-6-14,71,60,52,53,50,46,86,72,51,30.22,30.05,10,2,10,0.00
2013-6-15,83,65,51,60,52,45,83,65,44,30.06,29.86,14,3,14,0.00
2013-6-16,78,63,50,60,54,45,85,73,55,30.07,29.97,15,2,15,0.00
2013-6-17,79,66,55,59,54,51,85,69,43,30.07,29.86,14,2,14,0.00
2013-6-18,74,63,55,56,52,49,86,70,47,29.97,29.85,10,1,10,0.00
2013-6-19,64,58,54,56,52,48,86,81,70,29.99,29.88,6,0,6,0.00
2013-6-20,58,54,53,54,50,49,88,87,85,30.10,29.93,8,1,8,0.05
2013-6-21,70,60,52,56,52,49,89,77,58,30.14,30.09,9,1,9,0.02
2013-6-22,81,65,53,59,54,49,87,69,43,30.11,29.85,12,2,12,0.00
2013-6-23,70,64,58,62,57,51,85,78,71,29.86,29.58,11,1,11,0.00
2013-6-24,67,62,59,59,57,54,88,83,72,29.69,29.57,14,0,14,0.08
2013-6-25,70,61,55,60,55,51,88,82,65,29.86,29.67,10,1,10,0.08
2013-6-26,69,61,56,62,56,52,89,85,74,30.09,29.85,5,0,5,0.18
2013-6-27,67,62,57,62,58,54,89,87,82,30.20,30.05,11,1,11,0.12
2013-6-28,88,70,61,67,61,57,88,74,49,30.20,30.02,12,3,12,0.00
2013-6-29,88,72,0,69,60,-11,85,68,51,30.07,29.97,10,2,10,0.00
2013-6-30,97,78,63,71,65,59,86,67,39,30.02,29.81,58,1,58,0.00
2013-7-1,89,73,62,70,63,57,86,72,52,30.01,29.86,13,2,13,0.00
2013-7-2,82,70,60,63,57,0,84,65,46,30.09,30.01,14,3,14,0.00
2013-7-3,80,65,51,59,52,46,84,66,43,30.14,30.01,14,3,14,0.00
2013-7-4,74,62,48,56,51,44,86,70,53,30.10,30.00,17,3,17,0.00
2013-7-5,74,62,49,58,53,44,86,73,56,30.03,29.93,12,2,12,0.00
2013-7-6,81,66,52,63,56,47,87,71,51,29.96,29.82,13,2,13,0.00
2013-7-7,82,67,54,62,56,49,85,69,48,29.93,29.83,13,2,13,0.00
2013-7-8,82,66,52,63,56,47,85,71,52,30.08,29.92,16,2,16,0.00
2013-7-9,87,70,54,66,58,50,87,69,48,30.09,29.97,15,2,15,0.00
2013-7-10,77,64,52,59,53,47,85,69,50,30.03,29.93,19,3,19,0.00
2013-7-11,72,61,51,52,49,44,83,65,44,30.06,29.98,12,2,12,0.00
2013-7-12,72,59,46,55,49,41,84,71,55,30.10,29.98,14,2,14,0.00
2013-7-13,79,62,46,58,50,41,86,67,44,30.18,30.06,10,1,10,0.00
2013-7-14,83,65,47,58,50,42,85,62,36,30.13,29.96,15,2,15,0.00
2013-7-15,86,66,47,58,51,41,83,62,39,30.04,29.86,16,1,16,0.00
2013-7-16,91,73,57,63,56,49,79,58,35,29.90,29.78,13,2,13,0.00
2013-7-17,75,69,63,61,59,57,84,72,59,30.16,29.86,19,2,19,0.00
2013-7-18,81,69,61,63,58,53,78,68,53,30.20,30.09,16,2,16,0.00
2013-7-19,82,66,54,65,57,49,86,72,55,30.15,30.00,13,2,13,0.00
2013-7-20,78,65,55,63,56,49,86,74,58,30.06,29.93,14,2,14,0.00
2013-7-21,78,64,52,62,56,47,86,74,57,29.96,29.87,14,3,14,0.00
2013-7-22,81,67,57,64,58,52,86,74,57,30.03,29.92,13,2,13,0.00
2013-7-23,88,70,57,66,58,52,87,69,42,30.05,29.92,16,2,16,0.00
2013-7-24,86,68,52,64,56,47,86,67,45,30.05,29.95,14,2,14,0.00
2013-7-25,85,67,50,60,54,45,85,65,40,30.08,30.02,13,2,13,0.00
2013-7-26,86,66,49,61,52,44,84,63,38,30.12,30.05,15,2,15,0.00
2013-7-27,80,63,47,58,50,42,83,65,42,30.14,29.97,12,2,12,0.00
2013-7-28,77,63,48,58,52,43,84,70,51,29.99,29.91,15,3,15,0.00
2013-7-29,77,66,56,60,55,50,82,70,55,30.00,29.91,14,2,14,0.00
2013-7-30,80,66,53,62,56,48,86,72,53,30.10,30.00,13,2,13,0.00
2013-7-31,77,65,55,63,57,50,86,77,62,30.10,29.97,13,2,13,0.00
2013-8-1,66,62,59,60,56,55,86,81,74,30.04,29.98,14,2,14,0.00
2013-8-2,64,60,58,58,56,54,88,84,80,30.12,30.02,8,1,8,0.00
2013-8-3,77,66,57,63,58,53,89,77,60,30.12,30.02,13,2,13,0.00
2013-8-4,84,70,61,66,61,56,87,74,55,30.05,29.91,13,2,13,0.00
2013-8-5,86,70,56,66,60,52,87,72,50,29.99,29.89,12,2,12,0.00
2013-8-6,85,68,54,62,56,49,87,68,42,29.99,29.89,15,2,15,0.00
2013-8-7,86,68,53,62,56,48,86,67,42,29.99,29.90,15,2,15,0.00
2013-8-8,84,68,53,64,56,49,86,69,49,30.03,29.91,13,2,13,0.00
2013-8-9,85,68,53,65,57,48,85,70,49,29.96,29.79,13,2,13,0.00
2013-8-10,82,70,63,67,62,57,87,75,56,30.00,29.82,14,2,14,0.00
2013-8-11,73,65,59,62,59,55,87,81,68,30.05,29.97,14,2,14,0.00
2013-8-12,79,67,58,63,58,54,87,74,56,30.06,29.97,13,2,13,0.00
2013-8-13,82,67,0,62,57,-14,85,71,51,30.09,29.92,12,2,12,0.00
2013-8-14,84,67,0,65,58,-3,88,74,49,29.95,29.87,10,1,11,0.00
2013-8-15,74,67,63,65,61,59,86,82,73,29.97,29.91,13,1,13,0.00
2013-8-16,85,72,0,66,61,-12,90,70,48,30.00,29.91,10,2,10,0.00
2013-8-17,79,68,61,62,59,56,87,74,56,30.06,29.98,10,1,10,0.00
2013-8-18,78,67,58,61,57,54,87,73,53,30.09,30.05,12,2,12,0.00
2013-8-19,80,67,58,61,56,51,85,70,50,30.10,30.03,13,2,13,0.00
2013-8-20,79,63,49,60,53,45,86,70,47,30.16,30.04,15,2,15,0.00
2013-8-21,84,66,52,62,55,47,87,69,45,30.09,29.91,10,1,14,0.00
2013-8-22,86,68,53,64,58,49,87,70,48,29.95,29.76,12,1,12,0.00
2013-8-23,77,67,60,61,58,55,84,72,53,29.87,29.81,17,2,17,0.00
2013-8-24,74,64,56,60,56,50,83,75,55,29.92,29.84,11,2,11,0.00
2013-8-25,75,61,50,59,54,45,88,76,57,29.94,29.83,17,1,17,0.00
2013-8-26,78,64,58,62,57,54,89,79,55,29.95,29.81,18,1,18,0.00
2013-8-27,80,66,0,64,59,-2,89,77,54,29.95,29.77,8,1,8,0.00
2013-8-28,81,69,63,66,62,58,89,80,59,29.89,29.81,10,1,10,0.00
2013-8-29,69,64,0,65,60,-2,90,88,84,29.99,29.86,8,1,8,0.00
2013-8-30,77,65,58,62,58,54,91,80,52,30.14,29.99,8,1,8,0.00
2013-8-31,86,67,54,65,57,50,87,72,46,30.09,29.81,13,2,13,0.00
2013-9-1,82,67,54,65,58,50,88,75,53,29.87,29.76,13,2,13,0.00
2013-9-2,82,68,58,63,59,53,88,73,51,29.93,29.82,14,2,14,0.00
2013-9-3,75,64,0,65,59,-3,89,83,67,30.02,29.92,7,0,7,0.02
2013-9-4,74,65,57,64,58,53,90,81,70,30.04,29.97,11,1,11,0.00
2013-9-5,75,65,0,66,60,-2,89,82,71,30.04,29.90,9,1,9,0.00
2013-9-6,72,65,60,64,60,57,91,84,72,30.09,29.93,12,1,12,0.02
2013-9-7,77,67,61,64,60,57,90,81,63,30.09,29.99,10,1,10,0.00
2013-9-8,78,64,58,65,58,54,90,82,62,30.09,30.01,9,0,9,0.00
2013-9-9,79,69,0,65,60,-7,89,73,61,30.05,29.95,13,2,13,0.00
2013-9-10,82,70,56,68,62,52,90,75,59,29.99,29.87,10,2,10,0.00
2013-9-11,93,74,62,70,61,56,82,68,36,29.95,29.85,11,1,11,0.00
2013-9-12,83,69,57,67,59,52,85,73,58,29.98,29.86,12,2,12,0.00
2013-9-13,70,62,0,62,56,-4,88,83,74,29.96,29.85,12,2,12,0.00
2013-9-14,74,65,59,65,60,55,88,83,72,29.87,29.72,11,1,11,0.00
2013-9-15,71,63,59,63,59,54,90,86,74,29.80,29.68,16,2,16,0.05
2013-9-16,65,60,0,60,56,0,90,87,82,29.92,29.78,8,1,8,0.00
2013-9-17,65,58,0,55,53,-2,90,84,71,29.93,29.84,10,1,10,0.00
2013-9-18,69,58,51,57,52,48,90,82,57,30.07,29.92,10,1,10,0.00
2013-9-19,79,60,49,56,50,45,87,72,40,30.06,29.76,13,2,14,0.00
2013-9-20,77,62,49,55,50,44,85,68,43,29.76,29.55,10,2,10,0.00
2013-9-21,70,61,56,58,55,52,89,80,60,29.69,29.63,8,1,8,0.00
2013-9-22,57,55,53,54,51,50,90,88,86,29.70,29.57,6,0,6,0.00
2013-9-23,57,54,51,54,51,48,90,89,87,29.96,29.69,7,0,7,0.10
2013-9-24,63,54,48,53,49,46,90,84,63,29.96,29.81,9,0,9,0.00
2013-9-25,72,58,50,55,49,46,89,76,53,30.01,29.84,15,1,15,0.02
2013-9-26,73,65,44,53,50,40,85,59,48,30.12,30.01,1,0,1,39.32
2013-9-27,52,48,0,48,44,-2,90,88,85,30.12,29.84,3,0,4,0.00
2013-9-28,58,52,49,56,48,46,92,89,83,29.84,29.30,13,2,13,0.28
2013-9-29,53,51,50,49,48,43,90,88,72,29.54,29.18,18,2,18,1.19
2013-9-30,54,51,48,49,46,42,88,81,66,29.87,29.36,15,2,18,0.14
2013-10-1,56,50,47,50,46,43,87,83,75,30.10,29.87,7,1,7,0.27
2013-10-2,53,50,47,49,46,43,88,87,85,30.16,30.04,5,0,5,0.26
2013-10-3,60,51,45,49,45,42,89,82,66,30.43,30.15,9,1,9,0.00
2013-10-4,65,52,42,51,45,38,88,78,54,30.46,30.33,11,1,11,0.00
2013-10-5,71,56,48,54,46,42,82,71,47,30.35,30.11,11,2,11,0.00
2013-10-6,76,57,45,55,46,40,86,70,33,30.11,29.84,10,2,10,0.00
2013-10-7,58,52,50,50,47,45,87,84,67,29.97,29.84,9,1,9,1.00
2013-10-8,57,50,42,49,45,37,88,84,73,30.06,29.90,6,1,6,1.21
2013-10-9,58,48,40,47,42,36,88,80,64,30.11,29.93,9,2,9,0.00
2013-10-10,58,50,44,48,44,40,87,80,69,30.05,29.91,8,1,8,0.00
2013-10-11,58,49,41,48,44,37,88,81,69,30.12,30.04,9,1,9,0.00
2013-10-12,61,52,47,50,46,42,87,80,63,30.19,30.04,10,1,10,0.00
2013-10-13,59,49,41,48,43,36,86,80,69,30.34,30.19,11,1,11,0.00
2013-10-14,60,46,37,48,40,33,89,79,62,30.39,30.33,9,1,9,0.00
2013-10-15,63,49,38,50,42,35,88,78,60,30.37,30.14,9,1,9,0.00
2013-10-16,58,49,39,49,43,35,89,80,71,30.18,30.11,11,1,11,0.00
2013-10-17,61,50,42,50,44,38,87,80,67,30.24,30.17,10,1,10,0.00
2013-10-18,64,48,39,52,42,35,89,79,62,30.22,30.12,10,1,10,0.00
2013-10-19,57,46,37,48,41,33,89,82,72,30.17,30.10,9,1,9,0.00
2013-10-20,53,48,44,47,43,40,88,84,79,30.18,30.13,12,1,12,0.00
2013-10-21,57,48,43,50,44,39,88,84,76,30.14,30.07,9,1,9,0.00
2013-10-22,60,49,41,52,44,37,90,84,73,30.10,30.01,9,1,9,0.00
2013-10-23,68,49,38,55,43,35,91,81,61,30.02,29.94,4,0,4,0.00
2013-10-24,64,48,37,51,42,33,90,80,60,30.10,29.97,8,1,8,0.00
2013-10-25,52,49,46,47,45,42,87,85,82,30.29,30.10,6,1,6,0.00
2013-10-26,55,50,47,47,44,42,84,80,72,30.30,30.15,10,2,10,0.00
2013-10-27,56,49,40,50,44,37,88,84,77,30.17,29.86,7,1,7,0.21
2013-10-28,59,44,35,43,36,32,90,75,47,29.94,29.84,7,1,7,0.00
2013-10-29,56,42,33,40,34,28,85,74,51,30.02,29.93,8,1,8,0.00
2013-10-30,56,43,32,44,36,27,86,78,61,30.10,30.02,7,1,7,0.00
2013-10-31,54,50,47,50,46,43,88,86,84,30.24,30.07,5,0,5,0.37
2013-11-1,55,51,48,51,47,45,89,86,82,30.25,29.82,8,1,8,0.01
2013-11-2,52,47,43,47,43,40,91,87,77,29.84,29.43,19,3,19,2.06
2013-11-3,47,42,36,44,38,32,89,87,85,30.10,29.84,4,1,4,0.46
2013-11-4,46,39,35,40,35,32,89,86,79,30.18,30.07,6,1,6,0.04
2013-11-5,44,42,38,41,39,36,90,89,85,30.24,30.01,9,1,9,0.59
2013-11-6,50,46,42,45,42,39,90,87,82,30.31,30.03,7,2,7,0.04
2013-11-7,50,46,45,47,44,42,91,90,84,30.03,29.69,8,2,8,1.81
2013-11-8,54,48,45,48,44,43,91,88,78,30.12,29.93,6,1,6,0.26
2013-11-10,48,47,45,44,43,42,90,87,83,30.13,30.10,11,4,11,0.03
2013-11-11,56,51,46,49,45,42,87,80,74,30.15,29.98,15,4,15,0.00
2013-11-12,53,50,48,50,46,43,90,86,75,30.31,29.99,9,1,9,0.07
2013-11-13,54,52,49,51,48,46,90,88,86,30.40,30.29,7,1,7,0.31
2013-11-14,51,47,42,47,44,38,90,88,85,30.29,30.03,8,1,8,0.16
2013-11-15,44,42,41,41,39,38,90,88,87,30.04,29.31,10,1,10,1.35
2013-11-16,44,40,36,41,37,33,90,88,85,29.74,29.32,12,1,12,0.74
2013-11-17,44,40,36,41,38,33,91,90,88,29.87,29.74,5,1,5,0.33
2013-11-18,47,44,42,44,42,40,92,91,90,29.87,29.51,8,1,8,0.85
2013-11-19,48,43,35,46,39,32,94,88,81,30.04,29.47,13,2,13,0.00
2013-11-20,39,33,30,34,29,26,89,86,79,30.48,30.05,6,1,6,0.00
2013-11-21,39,31,28,32,27,24,86,83,75,30.64,30.48,6,1,6,0.00
2013-11-22,42,34,30,35,29,26,86,81,75,30.63,30.43,10,2,10,0.00
2013-11-23,45,35,31,40,31,27,88,86,81,30.43,30.18,4,1,4,0.00
2013-11-24,45,35,30,41,31,27,89,86,82,30.24,30.14,3,0,3,0.00
2013-11-25,46,36,31,42,33,28,90,87,83,30.30,30.24,3,0,3,0.00
2013-11-26,44,37,30,39,33,26,90,87,82,30.25,30.09,4,1,4,0.00
2013-11-27,52,43,36,46,38,32,88,83,70,30.09,29.94,15,2,15,0.00
2013-11-28,47,37,33,42,34,29,90,86,83,30.16,30.01,3,0,3,0.00
2013-11-29,49,42,37,44,39,34,89,87,79,30.29,30.15,5,1,8,0.00
2013-11-30,47,44,42,44,42,39,90,89,87,30.30,30.06,3,0,3,0.00
2013-12-1,50,46,41,47,43,37,93,90,84,30.06,29.70,13,3,13,2.42
2013-12-2,42,38,34,37,35,28,89,87,80,30.03,29.76,10,1,10,0.15
2013-12-3,37,32,30,28,23,20,80,69,59,30.29,30.03,11,4,11,0.00
2013-12-4,36,29,24,22,19,17,77,67,55,30.32,30.27,11,2,11,0.00
2013-12-5,33,28,24,24,20,17,77,74,68,30.31,30.17,7,1,8,0.00
2013-12-6,31,26,23,18,13,7,72,59,50,30.24,30.14,9,2,9,0.00
2013-12-7,29,21,15,10,7,4,71,56,43,30.41,30.23,14,2,14,0.00
2013-12-8,29,20,15,19,13,7,76,72,63,30.54,30.39,3,0,3,0.00
2013-12-9,32,26,15,25,19,9,78,75,70,30.57,30.45,2,0,2,0.00
2013-12-10,36,33,30,31,27,24,82,80,78,30.47,30.40,3,0,3,0.01
2013-12-11,41,35,32,32,29,26,84,78,67,30.41,30.14,7,1,11,0.00
2013-12-12,39,36,32,35,32,28,87,85,82,30.15,30.02,5,1,5,0.22
2013-12-13,42,39,37,39,36,33,89,87,84,30.41,30.12,2,0,2,0.13
2013-12-14,42,39,36,39,36,33,90,89,87,30.42,30.29,4,1,4,0.02
2013-12-15,46,42,39,44,39,36,91,90,89,30.43,30.30,4,0,4,0.08
2013-12-16,44,40,35,40,36,31,90,89,86,30.48,30.25,7,1,8,0.01
2013-12-17,40,36,32,37,33,30,90,89,87,30.25,30.08,4,0,4,0.00
2013-12-18,44,37,29,38,33,25,91,86,77,30.13,29.99,12,1,12,0.02
2013-12-19,36,30,25,30,26,21,87,83,77,30.32,30.12,7,1,7,0.00
2013-12-20,35,33,31,32,29,26,89,87,85,30.17,29.71,5,0,5,0.00
2013-12-21,38,36,34,35,32,31,89,88,86,30.16,29.83,1,0,2,0.01
2013-12-22,40,37,35,37,34,32,90,89,88,30.29,30.16,4,1,4,0.59
2013-12-23,44,40,37,42,37,34,93,89,87,30.49,30.07,12,2,12,0.89
2013-12-24,46,38,33,42,35,30,90,88,85,30.59,30.49,5,0,5,0.06
2013-12-25,42,37,33,38,34,30,90,87,84,30.51,30.36,8,1,8,0.00
2013-12-26,46,39,34,43,36,31,91,88,85,30.37,30.18,5,1,5,0.02
2013-12-27,43,39,34,41,36,30,93,90,89,30.32,30.05,9,1,9,0.39
2013-12-28,46,42,40,43,39,37,91,89,87,30.49,30.32,2,0,2,0.00
2013-12-29,43,40,37,40,37,34,91,89,88,30.45,30.29,5,1,5,0.02
2013-12-30,46,42,40,43,39,37,90,89,88,30.30,30.08,7,1,7,0.03
2013-12-31,47,44,41,44,41,39,91,90,88,30.36,30.16,5,0,5,0.03
2014-1-1,46,42,38,41,39,36,91,87,82,30.39,30.21,12,2,12,0.00
2014-1-2,46,44,43,44,41,39,91,89,85,30.22,29.87,14,2,14,0.04